sensor_id;sensor_type;location;lat;lon;timestamp;temperature;humidity
43651;DHT22;29247;50.944;5.382;2023-02-27T00:01:47;2.70;72.50
43651;DHT22;29247;50.944;5.382;2023-02-27T00:04:13;2.70;73.40
43651;DHT22;29247;50.944;5.382;2023-02-27T00:06:39;2.60;72.80
43651;DHT22;29247;50.944;5.382;2023-02-27T00:09:04;2.60;72.70
43651;DHT22;29247;50.944;5.382;2023-02-27T00:11:30;2.60;72.80
43651;DHT22;29247;50.944;5.382;2023-02-27T00:13:59;2.60;72.90
43651;DHT22;29247;50.944;5.382;2023-02-27T00:16:28;2.50;72.90
43651;DHT22;29247;50.944;5.382;2023-02-27T00:18:53;2.50;73.00
43651;DHT22;29247;50.944;5.382;2023-02-27T00:21:23;2.60;73.10
43651;DHT22;29247;50.944;5.382;2023-02-27T00:23:49;2.50;73.30
43651;DHT22;29247;50.944;5.382;2023-02-27T00:26:16;2.50;73.40
43651;DHT22;29247;50.944;5.382;2023-02-27T00:28:44;2.40;73.50
43651;DHT22;29247;50.944;5.382;2023-02-27T00:31:10;2.40;73.50
43651;DHT22;29247;50.944;5.382;2023-02-27T00:33:35;2.40;73.60
43651;DHT22;29247;50.944;5.382;2023-02-27T00:36:04;2.40;73.80
43651;DHT22;29247;50.944;5.382;2023-02-27T00:38:32;2.40;73.90
43651;DHT22;29247;50.944;5.382;2023-02-27T00:40:58;2.30;73.90
43651;DHT22;29247;50.944;5.382;2023-02-27T00:43:24;2.30;74.00
43651;DHT22;29247;50.944;5.382;2023-02-27T00:45:49;2.30;74.00
43651;DHT22;29247;50.944;5.382;2023-02-27T00:48:18;2.30;74.20
43651;DHT22;29247;50.944;5.382;2023-02-27T00:50:43;2.30;74.40
43651;DHT22;29247;50.944;5.382;2023-02-27T00:53:13;2.20;74.50
43651;DHT22;29247;50.944;5.382;2023-02-27T00:55:39;2.20;74.60
43651;DHT22;29247;50.944;5.382;2023-02-27T00:58:05;2.20;74.80
43651;DHT22;29247;50.944;5.382;2023-02-27T01:00:33;2.20;75.00
43651;DHT22;29247;50.944;5.382;2023-02-27T01:02:59;2.20;75.00
43651;DHT22;29247;50.944;5.382;2023-02-27T01:05:24;2.10;75.60
43651;DHT22;29247;50.944;5.382;2023-02-27T01:07:50;2.10;75.40
43651;DHT22;29247;50.944;5.382;2023-02-27T01:10:16;2.10;75.40
43651;DHT22;29247;50.944;5.382;2023-02-27T01:12:44;2.10;75.40
43651;DHT22;29247;50.944;5.382;2023-02-27T01:15:11;2.10;75.50
43651;DHT22;29247;50.944;5.382;2023-02-27T01:17:37;2.10;76.20
43651;DHT22;29247;50.944;5.382;2023-02-27T01:20:05;2.00;75.60
43651;DHT22;29247;50.944;5.382;2023-02-27T01:22:31;2.00;75.80
43651;DHT22;29247;50.944;5.382;2023-02-27T01:25:00;2.00;75.90
43651;DHT22;29247;50.944;5.382;2023-02-27T01:27:26;2.00;75.90
43651;DHT22;29247;50.944;5.382;2023-02-27T01:29:52;2.00;75.90
43651;DHT22;29247;50.944;5.382;2023-02-27T01:32:20;2.00;75.80
43651;DHT22;29247;50.944;5.382;2023-02-27T01:34:46;2.00;75.80
43651;DHT22;29247;50.944;5.382;2023-02-27T01:37:11;1.90;75.90
43651;DHT22;29247;50.944;5.382;2023-02-27T01:39:37;1.90;76.00
43651;DHT22;29247;50.944;5.382;2023-02-27T01:42:09;1.90;76.00
43651;DHT22;29247;50.944;5.382;2023-02-27T01:45:47;1.90;76.20
43651;DHT22;29247;50.944;5.382;2023-02-27T01:47:49;1.80;76.20
43651;DHT22;29247;50.944;5.382;2023-02-27T01:50:17;1.90;76.20
43651;DHT22;29247;50.944;5.382;2023-02-27T01:52:51;1.90;76.10
43651;DHT22;29247;50.944;5.382;2023-02-27T01:55:18;1.90;76.30
43651;DHT22;29247;50.944;5.382;2023-02-27T01:57:45;1.80;76.30
43651;DHT22;29247;50.944;5.382;2023-02-27T02:00:13;1.80;76.40
43651;DHT22;29247;50.944;5.382;2023-02-27T02:02:43;1.80;76.50
43651;DHT22;29247;50.944;5.382;2023-02-27T02:05:12;1.80;76.60
43651;DHT22;29247;50.944;5.382;2023-02-27T02:07:39;1.80;76.60
43651;DHT22;29247;50.944;5.382;2023-02-27T02:10:06;1.80;76.80
43651;DHT22;29247;50.944;5.382;2023-02-27T02:12:36;1.70;76.70
43651;DHT22;29247;50.944;5.382;2023-02-27T02:15:05;1.70;76.80
43651;DHT22;29247;50.944;5.382;2023-02-27T02:45:39;1.60;77.30
43651;DHT22;29247;50.944;5.382;2023-02-27T02:48:31;1.60;77.20
43651;DHT22;29247;50.944;5.382;2023-02-27T02:51:05;1.60;77.30
43651;DHT22;29247;50.944;5.382;2023-02-27T02:53:50;1.50;77.20
43651;DHT22;29247;50.944;5.382;2023-02-27T02:56:34;1.50;77.40
43651;DHT22;29247;50.944;5.382;2023-02-27T02:59:19;1.50;77.50
43651;DHT22;29247;50.944;5.382;2023-02-27T03:02:03;1.50;77.50
43651;DHT22;29247;50.944;5.382;2023-02-27T03:04:38;1.50;77.60
43651;DHT22;29247;50.944;5.382;2023-02-27T03:07:19;1.50;77.60
43651;DHT22;29247;50.944;5.382;2023-02-27T03:09:50;1.50;77.60
43651;DHT22;29247;50.944;5.382;2023-02-27T03:12:23;1.50;77.50
43651;DHT22;29247;50.944;5.382;2023-02-27T03:15:05;1.50;77.30
43651;DHT22;29247;50.944;5.382;2023-02-27T03:17:51;1.50;77.40
43651;DHT22;29247;50.944;5.382;2023-02-27T03:20:27;1.50;77.40
43651;DHT22;29247;50.944;5.382;2023-02-27T03:22:56;1.50;77.40
43651;DHT22;29247;50.944;5.382;2023-02-27T03:25:26;1.50;77.30
43651;DHT22;29247;50.944;5.382;2023-02-27T03:27:59;1.50;77.30
43651;DHT22;29247;50.944;5.382;2023-02-27T03:30:35;1.50;77.30
43651;DHT22;29247;50.944;5.382;2023-02-27T03:35:47;1.50;77.30
43651;DHT22;29247;50.944;5.382;2023-02-27T03:44:09;1.50;77.20
43651;DHT22;29247;50.944;5.382;2023-02-27T03:46:39;1.50;77.20
43651;DHT22;29247;50.944;5.382;2023-02-27T03:49:08;1.50;77.20
43651;DHT22;29247;50.944;5.382;2023-02-27T03:51:35;1.50;77.10
43651;DHT22;29247;50.944;5.382;2023-02-27T03:54:07;1.50;77.10
43651;DHT22;29247;50.944;5.382;2023-02-27T03:59:07;1.50;77.30
43651;DHT22;29247;50.944;5.382;2023-02-27T04:01:33;1.50;77.30
43651;DHT22;29247;50.944;5.382;2023-02-27T04:04:04;1.40;77.10
43651;DHT22;29247;50.944;5.382;2023-02-27T04:06:34;1.40;77.10
43651;DHT22;29247;50.944;5.382;2023-02-27T04:14:56;1.40;77.10
43651;DHT22;29247;50.944;5.382;2023-02-27T04:17:30;1.40;77.10
43651;DHT22;29247;50.944;5.382;2023-02-27T04:22:36;1.40;77.20
43651;DHT22;29247;50.944;5.382;2023-02-27T04:25:35;1.40;77.30
43651;DHT22;29247;50.944;5.382;2023-02-27T04:31:01;1.40;77.50
43651;DHT22;29247;50.944;5.382;2023-02-27T04:38:48;1.30;77.70
43651;DHT22;29247;50.944;5.382;2023-02-27T04:41:20;1.30;77.70
43651;DHT22;29247;50.944;5.382;2023-02-27T04:43:46;1.30;77.80
43651;DHT22;29247;50.944;5.382;2023-02-27T04:46:18;1.30;77.90
43651;DHT22;29247;50.944;5.382;2023-02-27T04:51:23;1.30;78.20
43651;DHT22;29247;50.944;5.382;2023-02-27T04:54:16;1.30;78.20
43651;DHT22;29247;50.944;5.382;2023-02-27T04:56:46;1.20;78.20
43651;DHT22;29247;50.944;5.382;2023-02-27T04:59:30;1.20;78.20
43651;DHT22;29247;50.944;5.382;2023-02-27T05:02:00;1.20;78.30
43651;DHT22;29247;50.944;5.382;2023-02-27T05:04:30;1.20;78.20
43651;DHT22;29247;50.944;5.382;2023-02-27T05:06:57;1.20;78.20
43651;DHT22;29247;50.944;5.382;2023-02-27T05:12:49;1.20;78.50
43651;DHT22;29247;50.944;5.382;2023-02-27T05:15:32;1.10;78.60
43651;DHT22;29247;50.944;5.382;2023-02-27T05:18:08;1.10;78.90
43651;DHT22;29247;50.944;5.382;2023-02-27T05:26:39;1.10;79.10
43651;DHT22;29247;50.944;5.382;2023-02-27T05:31:48;1.10;79.00
43651;DHT22;29247;50.944;5.382;2023-02-27T05:34:22;1.00;79.10
43651;DHT22;29247;50.944;5.382;2023-02-27T05:37:01;1.00;79.10
43651;DHT22;29247;50.944;5.382;2023-02-27T05:39:31;1.00;79.20
43651;DHT22;29247;50.944;5.382;2023-02-27T05:42:04;1.00;79.20
43651;DHT22;29247;50.944;5.382;2023-02-27T05:44:34;1.00;79.20
43651;DHT22;29247;50.944;5.382;2023-02-27T05:47:07;1.00;79.20
43651;DHT22;29247;50.944;5.382;2023-02-27T05:50:06;1.00;79.10
43651;DHT22;29247;50.944;5.382;2023-02-27T05:52:36;0.90;79.30
43651;DHT22;29247;50.944;5.382;2023-02-27T05:55:16;0.90;79.40
43651;DHT22;29247;50.944;5.382;2023-02-27T05:57:53;0.90;79.40
43651;DHT22;29247;50.944;5.382;2023-02-27T06:00:36;0.90;79.50
43651;DHT22;29247;50.944;5.382;2023-02-27T06:03:03;0.90;79.40
43651;DHT22;29247;50.944;5.382;2023-02-27T06:05:31;0.90;79.40
43651;DHT22;29247;50.944;5.382;2023-02-27T06:07:57;0.90;79.40
43651;DHT22;29247;50.944;5.382;2023-02-27T06:10:25;0.90;80.20
43651;DHT22;29247;50.944;5.382;2023-02-27T06:12:51;0.90;79.50
43651;DHT22;29247;50.944;5.382;2023-02-27T06:15:17;0.90;79.50
43651;DHT22;29247;50.944;5.382;2023-02-27T06:17:47;0.90;79.50
43651;DHT22;29247;50.944;5.382;2023-02-27T06:20:16;0.90;79.40
43651;DHT22;29247;50.944;5.382;2023-02-27T06:22:42;0.90;79.40
43651;DHT22;29247;50.944;5.382;2023-02-27T06:25:10;0.80;79.30
43651;DHT22;29247;50.944;5.382;2023-02-27T06:27:39;0.80;79.40
43651;DHT22;29247;50.944;5.382;2023-02-27T06:30:08;0.80;79.60
43651;DHT22;29247;50.944;5.382;2023-02-27T06:32:36;0.80;79.60
43651;DHT22;29247;50.944;5.382;2023-02-27T06:35:02;0.80;79.60
43651;DHT22;29247;50.944;5.382;2023-02-27T06:37:27;0.80;79.60
43651;DHT22;29247;50.944;5.382;2023-02-27T06:39:53;0.80;79.70
43651;DHT22;29247;50.944;5.382;2023-02-27T06:42:19;0.80;79.90
43651;DHT22;29247;50.944;5.382;2023-02-27T06:44:44;0.80;79.90
43651;DHT22;29247;50.944;5.382;2023-02-27T06:47:10;0.80;80.00
43651;DHT22;29247;50.944;5.382;2023-02-27T06:49:35;0.80;80.00
43651;DHT22;29247;50.944;5.382;2023-02-27T06:52:01;0.80;80.00
43651;DHT22;29247;50.944;5.382;2023-02-27T06:54:27;0.80;80.20
43651;DHT22;29247;50.944;5.382;2023-02-27T06:56:55;0.80;80.30
43651;DHT22;29247;50.944;5.382;2023-02-27T06:59:21;0.70;80.50
43651;DHT22;29247;50.944;5.382;2023-02-27T07:01:47;0.70;80.70
43651;DHT22;29247;50.944;5.382;2023-02-27T07:04:14;0.70;80.90
43651;DHT22;29247;50.944;5.382;2023-02-27T07:06:40;0.70;80.90
43651;DHT22;29247;50.944;5.382;2023-02-27T07:09:06;0.70;80.90
43651;DHT22;29247;50.944;5.382;2023-02-27T07:11:33;0.70;81.00
43651;DHT22;29247;50.944;5.382;2023-02-27T07:14:01;0.80;81.20
43651;DHT22;29247;50.944;5.382;2023-02-27T07:16:27;0.80;81.20
43651;DHT22;29247;50.944;5.382;2023-02-27T07:18:55;0.80;81.20
43651;DHT22;29247;50.944;5.382;2023-02-27T07:21:21;0.80;81.20
43651;DHT22;29247;50.944;5.382;2023-02-27T07:23:47;0.80;81.30
43651;DHT22;29247;50.944;5.382;2023-02-27T07:26:13;0.90;81.30
43651;DHT22;29247;50.944;5.382;2023-02-27T07:28:43;0.90;81.30
43651;DHT22;29247;50.944;5.382;2023-02-27T07:31:12;0.90;81.30
43651;DHT22;29247;50.944;5.382;2023-02-27T07:33:38;0.90;81.30
43651;DHT22;29247;50.944;5.382;2023-02-27T07:36:04;1.00;82.10
43651;DHT22;29247;50.944;5.382;2023-02-27T07:40:56;1.00;82.50
43651;DHT22;29247;50.944;5.382;2023-02-27T07:43:23;1.10;82.10
43651;DHT22;29247;50.944;5.382;2023-02-27T07:45:49;1.10;81.80
43651;DHT22;29247;50.944;5.382;2023-02-27T07:48:18;1.10;81.70
43651;DHT22;29247;50.944;5.382;2023-02-27T07:50:44;1.10;81.80
43651;DHT22;29247;50.944;5.382;2023-02-27T07:53:15;1.20;81.80
43651;DHT22;29247;50.944;5.382;2023-02-27T07:55:40;1.20;81.70
43651;DHT22;29247;50.944;5.382;2023-02-27T07:58:06;1.20;81.60
43651;DHT22;29247;50.944;5.382;2023-02-27T08:00:34;1.20;81.60
43651;DHT22;29247;50.944;5.382;2023-02-27T08:03:03;1.30;81.60
43651;DHT22;29247;50.944;5.382;2023-02-27T08:05:28;1.30;81.70
43651;DHT22;29247;50.944;5.382;2023-02-27T08:07:55;1.30;81.70
43651;DHT22;29247;50.944;5.382;2023-02-27T08:10:23;1.40;81.70
43651;DHT22;29247;50.944;5.382;2023-02-27T08:12:51;1.50;81.50
43651;DHT22;29247;50.944;5.382;2023-02-27T08:15:17;1.50;81.30
43651;DHT22;29247;50.944;5.382;2023-02-27T08:17:45;1.50;81.20
43651;DHT22;29247;50.944;5.382;2023-02-27T08:20:12;1.60;81.10
43651;DHT22;29247;50.944;5.382;2023-02-27T08:22:39;1.60;81.10
43651;DHT22;29247;50.944;5.382;2023-02-27T08:25:09;1.70;81.10
43651;DHT22;29247;50.944;5.382;2023-02-27T08:27:38;1.70;81.10
43651;DHT22;29247;50.944;5.382;2023-02-27T08:30:07;1.70;80.90
43651;DHT22;29247;50.944;5.382;2023-02-27T08:32:33;1.80;80.80
43651;DHT22;29247;50.944;5.382;2023-02-27T08:35:01;1.90;80.60
43651;DHT22;29247;50.944;5.382;2023-02-27T08:37:28;2.00;80.40
43651;DHT22;29247;50.944;5.382;2023-02-27T08:39:59;2.00;80.30
43651;DHT22;29247;50.944;5.382;2023-02-27T08:42:25;2.10;80.10
43651;DHT22;29247;50.944;5.382;2023-02-27T08:44:53;2.20;80.00
43651;DHT22;29247;50.944;5.382;2023-02-27T08:47:23;2.20;79.80
43651;DHT22;29247;50.944;5.382;2023-02-27T08:49:51;2.30;79.40
43651;DHT22;29247;50.944;5.382;2023-02-27T08:52:23;2.40;79.30
43651;DHT22;29247;50.944;5.382;2023-02-27T08:54:49;2.50;79.00
43651;DHT22;29247;50.944;5.382;2023-02-27T08:57:15;2.60;78.70
43651;DHT22;29247;50.944;5.382;2023-02-27T08:59:41;2.60;78.40
43651;DHT22;29247;50.944;5.382;2023-02-27T09:02:06;2.70;78.30
43651;DHT22;29247;50.944;5.382;2023-02-27T09:04:32;2.80;78.30
43651;DHT22;29247;50.944;5.382;2023-02-27T09:06:58;2.80;78.20
43651;DHT22;29247;50.944;5.382;2023-02-27T09:09:23;2.90;77.70
43651;DHT22;29247;50.944;5.382;2023-02-27T09:11:52;3.10;77.50
43651;DHT22;29247;50.944;5.382;2023-02-27T09:14:22;3.10;77.10
43651;DHT22;29247;50.944;5.382;2023-02-27T09:16:50;3.20;76.60
43651;DHT22;29247;50.944;5.382;2023-02-27T09:19:16;3.30;76.30
43651;DHT22;29247;50.944;5.382;2023-02-27T09:21:42;3.30;75.60
43651;DHT22;29247;50.944;5.382;2023-02-27T09:24:08;3.40;74.90
43651;DHT22;29247;50.944;5.382;2023-02-27T09:26:33;3.50;74.50
43651;DHT22;29247;50.944;5.382;2023-02-27T09:29:01;3.60;73.90
43651;DHT22;29247;50.944;5.382;2023-02-27T09:31:29;3.70;73.40
43651;DHT22;29247;50.944;5.382;2023-02-27T09:33:55;3.80;73.10
43651;DHT22;29247;50.944;5.382;2023-02-27T09:36:27;3.90;72.50
43651;DHT22;29247;50.944;5.382;2023-02-27T09:38:52;4.10;72.50
43651;DHT22;29247;50.944;5.382;2023-02-27T09:43:59;4.30;71.40
43651;DHT22;29247;50.944;5.382;2023-02-27T09:46:27;4.50;71.10
43651;DHT22;29247;50.944;5.382;2023-02-27T09:48:54;4.60;71.00
43651;DHT22;29247;50.944;5.382;2023-02-27T09:51:21;4.70;70.50
43651;DHT22;29247;50.944;5.382;2023-02-27T09:53:50;4.80;70.20
43651;DHT22;29247;50.944;5.382;2023-02-27T09:56:27;4.90;69.20
43651;DHT22;29247;50.944;5.382;2023-02-27T10:01:58;5.10;68.30
43651;DHT22;29247;50.944;5.382;2023-02-27T10:07:13;5.20;66.70
43651;DHT22;29247;50.944;5.382;2023-02-27T10:13:00;5.30;66.50
43651;DHT22;29247;50.944;5.382;2023-02-27T10:15:36;5.50;66.50
43651;DHT22;29247;50.944;5.382;2023-02-27T10:21:07;5.60;64.30
43651;DHT22;29247;50.944;5.382;2023-02-27T10:23:37;5.70;63.00
43651;DHT22;29247;50.944;5.382;2023-02-27T10:26:04;5.70;62.40
43651;DHT22;29247;50.944;5.382;2023-02-27T10:28:33;5.80;62.80
43651;DHT22;29247;50.944;5.382;2023-02-27T10:31:01;5.80;62.70
43651;DHT22;29247;50.944;5.382;2023-02-27T10:33:40;5.90;62.80
43651;DHT22;29247;50.944;5.382;2023-02-27T10:36:07;6.00;62.40
43651;DHT22;29247;50.944;5.382;2023-02-27T10:38:48;6.10;62.20
43651;DHT22;29247;50.944;5.382;2023-02-27T10:41:16;6.20;62.10
43651;DHT22;29247;50.944;5.382;2023-02-27T10:43:43;6.30;61.70
43651;DHT22;29247;50.944;5.382;2023-02-27T10:46:21;6.30;61.10
43651;DHT22;29247;50.944;5.382;2023-02-27T10:48:48;6.40;61.00
43651;DHT22;29247;50.944;5.382;2023-02-27T10:51:22;6.50;60.70
43651;DHT22;29247;50.944;5.382;2023-02-27T10:53:49;6.50;60.40
43651;DHT22;29247;50.944;5.382;2023-02-27T10:56:25;6.60;60.00
43651;DHT22;29247;50.944;5.382;2023-02-27T10:59:06;6.60;59.50
43651;DHT22;29247;50.944;5.382;2023-02-27T11:01:42;6.70;59.30
43651;DHT22;29247;50.944;5.382;2023-02-27T11:04:10;6.80;59.20
43651;DHT22;29247;50.944;5.382;2023-02-27T11:06:37;6.80;59.20
43651;DHT22;29247;50.944;5.382;2023-02-27T11:09:19;6.80;58.70
43651;DHT22;29247;50.944;5.382;2023-02-27T11:11:46;6.80;58.60
43651;DHT22;29247;50.944;5.382;2023-02-27T11:16:49;6.90;57.90
43651;DHT22;29247;50.944;5.382;2023-02-27T11:19:31;7.00;58.10
43651;DHT22;29247;50.944;5.382;2023-02-27T11:24:33;7.10;58.20
43651;DHT22;29247;50.944;5.382;2023-02-27T11:27:01;7.10;58.20
43651;DHT22;29247;50.944;5.382;2023-02-27T11:29:33;7.10;57.90
43651;DHT22;29247;50.944;5.382;2023-02-27T11:32:11;7.20;57.90
43651;DHT22;29247;50.944;5.382;2023-02-27T11:34:45;7.20;57.20
43651;DHT22;29247;50.944;5.382;2023-02-27T11:37:26;7.20;57.00
43651;DHT22;29247;50.944;5.382;2023-02-27T11:42:34;7.20;56.30
43651;DHT22;29247;50.944;5.382;2023-02-27T11:47:38;7.30;56.00
43651;DHT22;29247;50.944;5.382;2023-02-27T11:55:29;7.20;55.70
43651;DHT22;29247;50.944;5.382;2023-02-27T11:58:16;7.20;55.40
43651;DHT22;29247;50.944;5.382;2023-02-27T12:01:05;7.20;55.60
43651;DHT22;29247;50.944;5.382;2023-02-27T12:03:54;7.20;55.90
43651;DHT22;29247;50.944;5.382;2023-02-27T12:06:29;7.20;56.30
43651;DHT22;29247;50.944;5.382;2023-02-27T12:09:03;7.30;55.60
43651;DHT22;29247;50.944;5.382;2023-02-27T12:11:40;7.30;55.10
43651;DHT22;29247;50.944;5.382;2023-02-27T12:14:21;7.40;55.10
43651;DHT22;29247;50.944;5.382;2023-02-27T12:16:53;7.40;55.20
43651;DHT22;29247;50.944;5.382;2023-02-27T12:19:37;7.40;54.80
43651;DHT22;29247;50.944;5.382;2023-02-27T12:22:25;7.40;54.80
43651;DHT22;29247;50.944;5.382;2023-02-27T12:24:59;7.40;55.10
43651;DHT22;29247;50.944;5.382;2023-02-27T12:27:50;7.40;54.30
43651;DHT22;29247;50.944;5.382;2023-02-27T12:30:22;7.30;54.20
43651;DHT22;29247;50.944;5.382;2023-02-27T12:35:31;7.30;55.20
43651;DHT22;29247;50.944;5.382;2023-02-27T12:37:58;7.40;55.20
43651;DHT22;29247;50.944;5.382;2023-02-27T12:40:36;7.40;54.90
43651;DHT22;29247;50.944;5.382;2023-02-27T12:56:53;7.80;54.80
43651;DHT22;29247;50.944;5.382;2023-02-27T12:59:49;7.80;54.70
43651;DHT22;29247;50.944;5.382;2023-02-27T13:05:30;7.80;54.50
43651;DHT22;29247;50.944;5.382;2023-02-27T13:13:09;7.80;54.60
43651;DHT22;29247;50.944;5.382;2023-02-27T13:15:49;7.70;54.30
43651;DHT22;29247;50.944;5.382;2023-02-27T13:21:20;7.50;54.70
43651;DHT22;29247;50.944;5.382;2023-02-27T13:24:01;7.50;54.80
43651;DHT22;29247;50.944;5.382;2023-02-27T13:26:38;7.30;54.70
43651;DHT22;29247;50.944;5.382;2023-02-27T13:29:14;7.20;54.80
43651;DHT22;29247;50.944;5.382;2023-02-27T13:32:11;7.10;55.00
43651;DHT22;29247;50.944;5.382;2023-02-27T13:34:43;7.10;55.20
43651;DHT22;29247;50.944;5.382;2023-02-27T13:37:14;7.10;55.10
43651;DHT22;29247;50.944;5.382;2023-02-27T13:45:02;7.20;54.70
43651;DHT22;29247;50.944;5.382;2023-02-27T13:47:47;7.30;54.20
43651;DHT22;29247;50.944;5.382;2023-02-27T13:52:43;7.30;54.40
43651;DHT22;29247;50.944;5.382;2023-02-27T13:55:32;7.40;54.70
43651;DHT22;29247;50.944;5.382;2023-02-27T13:58:03;7.40;54.70
43651;DHT22;29247;50.944;5.382;2023-02-27T14:00:33;7.30;54.50
43651;DHT22;29247;50.944;5.382;2023-02-27T14:03:07;7.40;54.70
43651;DHT22;29247;50.944;5.382;2023-02-27T14:05:46;7.40;54.50
43651;DHT22;29247;50.944;5.382;2023-02-27T14:11:01;7.20;54.10
43651;DHT22;29247;50.944;5.382;2023-02-27T14:16:12;7.20;55.00
43651;DHT22;29247;50.944;5.382;2023-02-27T14:18:58;7.30;55.20
43651;DHT22;29247;50.944;5.382;2023-02-27T14:24:20;7.30;54.80
43651;DHT22;29247;50.944;5.382;2023-02-27T14:26:50;7.40;54.90
43651;DHT22;29247;50.944;5.382;2023-02-27T14:29:20;7.40;54.90
43651;DHT22;29247;50.944;5.382;2023-02-27T14:31:48;7.40;54.90
43651;DHT22;29247;50.944;5.382;2023-02-27T14:34:19;7.40;55.00
43651;DHT22;29247;50.944;5.382;2023-02-27T14:36:57;7.50;55.30
43651;DHT22;29247;50.944;5.382;2023-02-27T14:39:27;7.50;55.20
43651;DHT22;29247;50.944;5.382;2023-02-27T14:42:01;7.50;54.40
43651;DHT22;29247;50.944;5.382;2023-02-27T14:44:44;7.40;54.50
43651;DHT22;29247;50.944;5.382;2023-02-27T14:47:36;7.40;54.70
43651;DHT22;29247;50.944;5.382;2023-02-27T14:50:05;7.40;54.80
43651;DHT22;29247;50.944;5.382;2023-02-27T14:52:41;7.40;54.70
43651;DHT22;29247;50.944;5.382;2023-02-27T14:55:25;7.40;54.80
43651;DHT22;29247;50.944;5.382;2023-02-27T15:01:02;7.40;54.40
43651;DHT22;29247;50.944;5.382;2023-02-27T15:03:52;7.50;54.50
43651;DHT22;29247;50.944;5.382;2023-02-27T15:06:27;7.50;54.50
43651;DHT22;29247;50.944;5.382;2023-02-27T15:08:54;7.60;54.70
43651;DHT22;29247;50.944;5.382;2023-02-27T15:11:24;7.60;54.70
43651;DHT22;29247;50.944;5.382;2023-02-27T15:13:55;7.60;53.90
43651;DHT22;29247;50.944;5.382;2023-02-27T15:16:27;7.60;53.90
43651;DHT22;29247;50.944;5.382;2023-02-27T15:19:16;7.60;53.90
43651;DHT22;29247;50.944;5.382;2023-02-27T15:21:52;7.60;54.20
43651;DHT22;29247;50.944;5.382;2023-02-27T15:24:30;7.60;54.20
43651;DHT22;29247;50.944;5.382;2023-02-27T15:27:03;7.50;54.50
43651;DHT22;29247;50.944;5.382;2023-02-27T15:32:37;7.40;54.70
43651;DHT22;29247;50.944;5.382;2023-02-27T15:35:14;7.40;55.00
43651;DHT22;29247;50.944;5.382;2023-02-27T15:37:55;7.30;55.00
43651;DHT22;29247;50.944;5.382;2023-02-27T15:40:23;7.30;55.10
43651;DHT22;29247;50.944;5.382;2023-02-27T15:42:53;7.30;55.80
43651;DHT22;29247;50.944;5.382;2023-02-27T15:45:25;7.30;55.40
43651;DHT22;29247;50.944;5.382;2023-02-27T15:47:52;7.30;55.60
43651;DHT22;29247;50.944;5.382;2023-02-27T15:50:22;7.30;55.30
43651;DHT22;29247;50.944;5.382;2023-02-27T15:52:50;7.20;55.20
43651;DHT22;29247;50.944;5.382;2023-02-27T15:55:23;7.20;55.10
43651;DHT22;29247;50.944;5.382;2023-02-27T15:57:50;7.20;55.00
43651;DHT22;29247;50.944;5.382;2023-02-27T16:00:19;7.20;55.20
43651;DHT22;29247;50.944;5.382;2023-02-27T16:02:49;7.10;55.00
43651;DHT22;29247;50.944;5.382;2023-02-27T16:05:32;7.00;55.20
43651;DHT22;29247;50.944;5.382;2023-02-27T16:07:59;7.00;55.30
43651;DHT22;29247;50.944;5.382;2023-02-27T16:10:35;7.00;55.40
43651;DHT22;29247;50.944;5.382;2023-02-27T16:13:21;7.00;55.60
43651;DHT22;29247;50.944;5.382;2023-02-27T16:16:02;7.00;55.80
43651;DHT22;29247;50.944;5.382;2023-02-27T16:18:49;7.00;55.90
43651;DHT22;29247;50.944;5.382;2023-02-27T16:21:26;6.90;55.80
43651;DHT22;29247;50.944;5.382;2023-02-27T16:23:53;6.80;55.80
43651;DHT22;29247;50.944;5.382;2023-02-27T16:26:30;6.90;56.00
43651;DHT22;29247;50.944;5.382;2023-02-27T16:31:36;6.90;55.70
43651;DHT22;29247;50.944;5.382;2023-02-27T16:36:41;6.80;55.60
43651;DHT22;29247;50.944;5.382;2023-02-27T16:39:13;6.70;55.60
43651;DHT22;29247;50.944;5.382;2023-02-27T16:41:40;6.70;55.70
43651;DHT22;29247;50.944;5.382;2023-02-27T16:44:05;6.70;55.70
43651;DHT22;29247;50.944;5.382;2023-02-27T16:46:32;6.60;55.70
43651;DHT22;29247;50.944;5.382;2023-02-27T16:48:58;6.60;55.70
43651;DHT22;29247;50.944;5.382;2023-02-27T16:51:27;6.60;55.60
43651;DHT22;29247;50.944;5.382;2023-02-27T16:53:55;6.60;55.70
43651;DHT22;29247;50.944;5.382;2023-02-27T16:56:22;6.60;55.80
43651;DHT22;29247;50.944;5.382;2023-02-27T16:58:52;6.50;55.90
43651;DHT22;29247;50.944;5.382;2023-02-27T17:01:18;6.50;56.00
43651;DHT22;29247;50.944;5.382;2023-02-27T17:03:45;6.50;56.10
43651;DHT22;29247;50.944;5.382;2023-02-27T17:06:14;6.50;56.30
43651;DHT22;29247;50.944;5.382;2023-02-27T17:08:41;6.40;56.40
43651;DHT22;29247;50.944;5.382;2023-02-27T17:11:08;6.40;56.40
43651;DHT22;29247;50.944;5.382;2023-02-27T17:13:35;6.30;56.30
43651;DHT22;29247;50.944;5.382;2023-02-27T17:16:02;6.30;56.40
43651;DHT22;29247;50.944;5.382;2023-02-27T17:18:31;6.30;56.40
43651;DHT22;29247;50.944;5.382;2023-02-27T17:21:01;6.30;56.50
43651;DHT22;29247;50.944;5.382;2023-02-27T17:23:27;6.20;56.80
43651;DHT22;29247;50.944;5.382;2023-02-27T17:25:53;6.20;57.00
43651;DHT22;29247;50.944;5.382;2023-02-27T17:28:21;6.20;57.00
43651;DHT22;29247;50.944;5.382;2023-02-27T17:30:47;6.20;57.10
43651;DHT22;29247;50.944;5.382;2023-02-27T17:33:13;6.10;57.20
43651;DHT22;29247;50.944;5.382;2023-02-27T17:35:39;6.10;57.30
43651;DHT22;29247;50.944;5.382;2023-02-27T17:38:05;6.10;57.40
43651;DHT22;29247;50.944;5.382;2023-02-27T17:40:30;6.00;57.60
43651;DHT22;29247;50.944;5.382;2023-02-27T17:42:59;6.00;57.60
43651;DHT22;29247;50.944;5.382;2023-02-27T17:45:25;6.00;57.70
43651;DHT22;29247;50.944;5.382;2023-02-27T17:47:52;6.00;57.70
43651;DHT22;29247;50.944;5.382;2023-02-27T17:50:18;6.00;57.70
43651;DHT22;29247;50.944;5.382;2023-02-27T17:52:44;5.90;57.70
43651;DHT22;29247;50.944;5.382;2023-02-27T17:55:10;5.90;58.40
43651;DHT22;29247;50.944;5.382;2023-02-27T17:57:38;5.90;57.90
43651;DHT22;29247;50.944;5.382;2023-02-27T18:00:05;5.90;58.10
43651;DHT22;29247;50.944;5.382;2023-02-27T18:02:34;5.80;58.00
43651;DHT22;29247;50.944;5.382;2023-02-27T18:05:01;5.80;57.90
43651;DHT22;29247;50.944;5.382;2023-02-27T18:07:29;5.80;58.10
43651;DHT22;29247;50.944;5.382;2023-02-27T18:09:55;5.80;58.20
43651;DHT22;29247;50.944;5.382;2023-02-27T18:12:21;5.80;58.20
43651;DHT22;29247;50.944;5.382;2023-02-27T18:14:47;5.70;58.30
43651;DHT22;29247;50.944;5.382;2023-02-27T18:17:13;5.70;58.30
43651;DHT22;29247;50.944;5.382;2023-02-27T18:19:41;5.70;58.40
43651;DHT22;29247;50.944;5.382;2023-02-27T18:22:11;5.60;58.50
43651;DHT22;29247;50.944;5.382;2023-02-27T18:24:39;5.60;58.50
43651;DHT22;29247;50.944;5.382;2023-02-27T18:27:05;5.60;58.50
43651;DHT22;29247;50.944;5.382;2023-02-27T18:29:33;5.60;58.50
43651;DHT22;29247;50.944;5.382;2023-02-27T18:32:01;5.50;58.60
43651;DHT22;29247;50.944;5.382;2023-02-27T18:34:27;5.50;58.80
43651;DHT22;29247;50.944;5.382;2023-02-27T18:36:53;5.50;58.80
43651;DHT22;29247;50.944;5.382;2023-02-27T18:39:18;5.50;58.80
43651;DHT22;29247;50.944;5.382;2023-02-27T18:41:50;5.40;58.90
43651;DHT22;29247;50.944;5.382;2023-02-27T18:44:15;5.40;58.90
43651;DHT22;29247;50.944;5.382;2023-02-27T18:46:41;5.40;59.00